createdAt,value
2019-05-23T00:05:23.853Z,11.50
2019-05-23T00:15:51.056Z,11.50
2019-05-23T00:25:57.254Z,11.30
2019-05-23T00:36:04.074Z,11.40
2019-05-23T01:26:36.408Z,11.30
2019-05-23T01:36:48.441Z,11.30
2019-05-23T03:28:12.955Z,11.00
2019-05-23T03:38:20.037Z,11.00
2019-05-23T03:58:32.434Z,11.00
2019-05-23T05:39:26.716Z,10.90
2019-05-23T05:49:32.960Z,10.70
2019-05-23T05:59:38.688Z,10.80
2019-05-23T06:09:45.799Z,10.70
2019-05-23T06:19:51.406Z,10.90
2019-05-23T06:29:57.398Z,10.90
2019-05-23T06:40:03.761Z,10.90
2019-05-23T09:31:44.819Z,11.00
2019-05-23T09:41:50.480Z,11.00
2019-05-23T12:13:15.674Z,11.40
2019-05-23T12:23:21.436Z,11.40
2019-05-23T12:33:27.086Z,11.40
2019-05-23T12:43:32.637Z,11.30
2019-05-23T12:53:39.440Z,11.30
2019-05-23T13:03:45.209Z,11.20
2019-05-23T13:13:50.799Z,11.30
2019-05-23T13:34:06.005Z,10.90
2019-05-23T14:44:46.880Z,11.20
2019-05-23T14:54:55.695Z,11.10
2019-05-23T15:05:01.490Z,11.00
2019-05-23T15:15:07.565Z,11.10
2019-05-23T15:25:13.349Z,11.20
2019-05-23T15:35:19.202Z,11.10
2019-05-23T15:45:24.793Z,11.20
2019-05-23T15:55:48.172Z,11.40
2019-05-23T16:05:56.987Z,11.40
2019-05-23T16:16:04.918Z,11.40
2019-05-23T16:26:11.722Z,11.30
2019-05-23T16:36:17.599Z,11.30
2019-05-23T16:46:23.106Z,11.40
2019-05-23T16:56:33.342Z,11.60
2019-05-23T17:06:41.776Z,11.70
2019-05-23T17:16:48.968Z,11.80
2019-05-23T17:27:08.312Z,11.70
2019-05-23T17:37:14.831Z,11.80
2019-05-23T17:47:20.865Z,11.80
2019-05-23T17:57:26.599Z,11.80
2019-05-23T18:07:35.290Z,11.80
2019-05-23T18:17:41.781Z,11.90
2019-05-23T18:27:48.356Z,11.90
2019-05-23T18:37:54.340Z,11.90
2019-05-23T18:48:00.268Z,11.90
2019-05-23T18:58:06.198Z,11.80
2019-05-23T19:08:12.444Z,11.70
2019-05-23T19:18:19.180Z,11.70
2019-05-23T19:28:26.100Z,11.70
2019-05-23T19:38:31.911Z,11.80
2019-05-23T19:48:39.287Z,11.90
2019-05-23T19:58:45.087Z,11.80
2019-05-23T20:08:52.549Z,11.90
2019-05-23T20:18:58.046Z,11.80
2019-05-23T20:29:03.801Z,12.00
2019-05-23T20:39:09.601Z,11.70
2019-05-23T20:49:15.377Z,11.70
2019-05-23T20:59:20.996Z,11.90
2019-05-23T21:09:26.753Z,12.10
2019-05-23T21:19:32.395Z,12.00
2019-05-23T21:29:38.046Z,12.00
2019-05-23T21:39:43.876Z,12.10
2019-05-23T21:49:49.765Z,11.90
2019-05-23T21:59:55.995Z,12.00
2019-05-23T22:10:02.839Z,11.90
2019-05-23T22:20:10.214Z,11.60
2019-05-23T22:30:16.286Z,11.50
2019-05-23T22:40:22.442Z,11.40
2019-05-23T22:50:28.162Z,11.50
2019-05-23T23:00:44.678Z,11.50
2019-05-23T23:10:50.721Z,11.50
2019-05-23T23:20:56.486Z,11.60
2019-05-23T23:31:02.362Z,11.50
2019-05-23T23:41:08.201Z,11.50
2019-05-23T23:51:33.498Z,11.50
